createdAt,value
2023-03-29T00:01:58.059Z,30.40
2023-03-29T00:04:43.822Z,29.77
2023-03-29T00:07:33.383Z,24.90
2023-03-29T00:10:19.111Z,27.50
2023-03-29T00:13:04.907Z,27.50
2023-03-29T00:15:50.511Z,30.33
2023-03-29T00:18:36.033Z,34.75
2023-03-29T00:21:21.957Z,32.00
2023-03-29T00:24:07.587Z,30.55
2023-03-29T00:26:53.333Z,31.13
2023-03-29T00:29:38.659Z,32.65
2023-03-29T00:32:24.170Z,25.52
2023-03-29T00:35:11.026Z,30.98
2023-03-29T00:37:57.787Z,31.75
2023-03-29T00:40:49.553Z,28.90
2023-03-29T00:48:24.444Z,26.60
2023-03-29T00:51:14.303Z,24.42
2023-03-29T00:54:03.684Z,28.83
2023-03-29T00:56:51.680Z,27.60
2023-03-29T00:59:39.156Z,24.95
2023-03-29T01:02:27.414Z,24.23
2023-03-29T01:05:18.568Z,30.80
2023-03-29T01:08:12.380Z,22.20
2023-03-29T01:11:07.144Z,23.65
2023-03-29T01:13:52.481Z,23.50
2023-03-29T01:16:40.496Z,26.80
2023-03-29T01:19:32.028Z,24.00
2023-03-29T01:22:22.476Z,22.73
2023-03-29T01:25:26.721Z,23.77
2023-03-29T01:28:18.205Z,29.58
2023-03-29T01:31:11.925Z,23.00
2023-03-29T01:34:42.321Z,27.20
2023-03-29T01:37:36.403Z,25.30
2023-03-29T01:40:21.780Z,21.85
2023-03-29T01:43:31.441Z,25.23
2023-03-29T01:46:43.196Z,23.58
2023-03-29T01:49:42.765Z,21.23
2023-03-29T01:52:40.930Z,21.65
2023-03-29T01:55:32.648Z,23.73
2023-03-29T01:58:22.449Z,20.25
2023-03-29T02:01:10.531Z,21.77
2023-03-29T02:04:03.176Z,20.20
2023-03-29T02:06:54.196Z,22.13
2023-03-29T02:09:40.358Z,22.80
2023-03-29T02:12:25.925Z,22.50
2023-03-29T02:15:14.366Z,23.17
2023-03-29T02:17:59.963Z,22.15
2023-03-29T02:20:48.898Z,21.52
2023-03-29T02:23:41.039Z,25.00
2023-03-29T02:26:26.401Z,24.98
2023-03-29T02:29:12.304Z,21.33
2023-03-29T02:32:12.632Z,25.55
2023-03-29T02:35:07.392Z,21.85
2023-03-29T02:37:56.110Z,26.80
2023-03-29T02:40:42.686Z,22.05
2023-03-29T02:43:29.916Z,22.63
2023-03-29T02:46:18.336Z,24.83
2023-03-29T02:49:05.299Z,26.10
2023-03-29T02:51:54.122Z,22.73
2023-03-29T02:54:43.344Z,25.67
2023-03-29T02:57:28.973Z,23.10
2023-03-29T03:00:19.992Z,20.13
2023-03-29T03:03:08.009Z,22.80
2023-03-29T03:05:53.953Z,25.73
2023-03-29T03:08:40.056Z,25.00
2023-03-29T03:11:25.299Z,32.40
2023-03-29T03:14:11.036Z,26.77
2023-03-29T03:16:57.814Z,31.73
2023-03-29T03:19:43.371Z,29.13
2023-03-29T03:22:28.630Z,26.23
2023-03-29T03:25:19.457Z,28.88
2023-03-29T03:28:05.510Z,30.73
2023-03-29T03:30:51.417Z,25.15
2023-03-29T03:33:36.909Z,27.70
2023-03-29T03:36:26.117Z,30.35
2023-03-29T03:39:11.963Z,28.85
2023-03-29T03:41:57.651Z,35.67
2023-03-29T03:44:44.005Z,23.15
2023-03-29T03:47:29.392Z,29.23
2023-03-29T03:50:14.795Z,25.05
2023-03-29T03:53:00.470Z,27.23
2023-03-29T03:55:50.102Z,30.13
2023-03-29T03:58:36.450Z,28.52
2023-03-29T04:01:21.904Z,29.65
2023-03-29T04:04:08.381Z,27.38
2023-03-29T04:06:53.919Z,29.65
2023-03-29T04:09:39.405Z,26.58
2023-03-29T04:12:24.719Z,30.67
2023-03-29T04:15:10.583Z,27.45
2023-03-29T04:17:56.982Z,28.55
2023-03-29T04:20:43.692Z,30.58
2023-03-29T04:23:29.329Z,31.02
2023-03-29T04:26:15.530Z,31.40
2023-03-29T04:29:00.831Z,25.05
2023-03-29T04:31:46.457Z,25.58
2023-03-29T04:34:31.721Z,24.45
2023-03-29T04:37:22.024Z,27.95
2023-03-29T04:40:09.831Z,28.88
2023-03-29T04:42:55.264Z,31.27
2023-03-29T04:45:40.414Z,27.95
2023-03-29T04:48:26.521Z,28.65
2023-03-29T04:51:11.805Z,31.88
2023-03-29T04:53:57.771Z,28.75
2023-03-29T04:56:43.321Z,30.65
2023-03-29T04:59:29.202Z,32.60
2023-03-29T05:02:14.501Z,34.20
2023-03-29T05:05:00.268Z,30.80
2023-03-29T05:07:46.115Z,29.65
2023-03-29T05:10:32.218Z,29.60
2023-03-29T05:13:18.001Z,33.22
2023-03-29T05:16:04.746Z,26.73
2023-03-29T05:18:50.098Z,25.98
2023-03-29T05:21:35.717Z,27.45
2023-03-29T05:24:21.376Z,27.00
2023-03-29T05:27:07.079Z,24.40
2023-03-29T05:29:52.573Z,25.88
2023-03-29T05:32:38.320Z,24.08
2023-03-29T05:35:26.185Z,29.95
2023-03-29T05:38:11.843Z,24.60
2023-03-29T05:40:57.681Z,28.40
2023-03-29T05:43:43.778Z,25.20
2023-03-29T05:46:29.200Z,24.23
2023-03-29T05:49:14.888Z,24.75
2023-03-29T05:52:00.482Z,25.13
2023-03-29T05:54:45.885Z,26.23
2023-03-29T05:57:31.234Z,25.27
2023-03-29T06:00:23.843Z,23.25
2023-03-29T06:03:21.209Z,23.23
2023-03-29T06:06:08.407Z,24.08
2023-03-29T06:08:53.833Z,18.27
2023-03-29T06:11:39.645Z,20.80
2023-03-29T06:14:25.144Z,21.90
2023-03-29T06:17:10.738Z,20.67
2023-03-29T06:19:57.892Z,17.73
2023-03-29T06:22:43.542Z,19.65
2023-03-29T06:25:29.984Z,24.85
2023-03-29T06:28:16.540Z,22.17
2023-03-29T06:31:03.043Z,20.15
2023-03-29T06:33:49.467Z,22.00
2023-03-29T06:36:35.246Z,23.40
2023-03-29T06:39:20.705Z,20.67
2023-03-29T06:42:20.120Z,19.50
2023-03-29T06:45:07.281Z,21.10
2023-03-29T06:47:52.846Z,23.67
2023-03-29T06:50:38.270Z,23.10
2023-03-29T06:53:23.803Z,20.67
2023-03-29T06:56:09.788Z,25.95
2023-03-29T06:58:55.706Z,25.00
2023-03-29T07:01:41.487Z,21.38
2023-03-29T07:04:32.316Z,25.15
2023-03-29T07:07:20.884Z,23.05
2023-03-29T07:10:07.430Z,22.85
2023-03-29T07:12:53.289Z,19.08
2023-03-29T07:15:40.539Z,19.65
2023-03-29T07:18:25.899Z,19.33
2023-03-29T07:21:12.821Z,23.40
2023-03-29T07:23:58.301Z,20.45
2023-03-29T07:26:52.303Z,17.20
2023-03-29T07:29:42.068Z,16.02
2023-03-29T07:32:30.334Z,16.42
2023-03-29T07:35:17.421Z,19.63
2023-03-29T07:38:02.861Z,13.88
2023-03-29T07:40:48.250Z,23.42
2023-03-29T07:43:34.487Z,13.00
2023-03-29T07:46:20.464Z,11.45
2023-03-29T07:49:08.171Z,12.73
2023-03-29T07:51:54.973Z,13.93
2023-03-29T07:54:40.538Z,10.77
2023-03-29T07:57:26.820Z,14.55
2023-03-29T08:00:17.149Z,8.52
2023-03-29T08:03:04.293Z,11.10
2023-03-29T08:05:49.855Z,11.77
2023-03-29T08:08:35.617Z,12.48
2023-03-29T08:11:20.970Z,10.70
2023-03-29T08:14:07.263Z,11.25
2023-03-29T08:16:53.020Z,11.50
2023-03-29T08:19:38.328Z,13.32
2023-03-29T08:22:24.325Z,8.73
2023-03-29T08:25:10.496Z,9.93
2023-03-29T08:27:56.072Z,11.45
2023-03-29T08:30:42.171Z,12.70
2023-03-29T08:33:27.999Z,12.30
2023-03-29T08:36:13.786Z,10.88
2023-03-29T08:38:59.641Z,10.95
2023-03-29T08:41:57.790Z,12.48
2023-03-29T08:45:04.496Z,12.57
2023-03-29T08:48:17.018Z,10.05
2023-03-29T08:51:19.476Z,9.35
2023-03-29T08:54:25.507Z,11.57
2023-03-29T08:57:29.375Z,12.00
2023-03-29T09:03:16.804Z,8.20
2023-03-29T09:06:08.686Z,10.13
2023-03-29T09:08:54.171Z,10.48
2023-03-29T09:12:01.864Z,12.10
2023-03-29T09:14:53.201Z,9.15
2023-03-29T09:17:49.591Z,9.65
2023-03-29T09:20:45.116Z,11.10
2023-03-29T09:23:49.145Z,6.70
2023-03-29T09:26:44.361Z,3.75
2023-03-29T09:29:35.576Z,5.05
2023-03-29T09:32:37.356Z,2.85
2023-03-29T09:35:28.996Z,4.25
2023-03-29T09:38:16.158Z,2.20
2023-03-29T09:41:21.183Z,2.20
2023-03-29T09:44:23.975Z,4.13
2023-03-29T09:47:34.371Z,3.65
2023-03-29T09:50:31.958Z,3.58
2023-03-29T09:53:20.660Z,4.15
2023-03-29T09:56:08.503Z,3.63
2023-03-29T09:58:54.348Z,4.97
2023-03-29T10:01:42.259Z,6.10
2023-03-29T10:04:27.921Z,4.32
2023-03-29T10:07:19.082Z,2.78
2023-03-29T10:10:09.202Z,3.55
2023-03-29T10:12:59.722Z,3.72
2023-03-29T10:15:45.180Z,3.75
2023-03-29T10:18:32.752Z,3.83
2023-03-29T10:21:22.181Z,6.78
2023-03-29T10:24:09.821Z,5.40
2023-03-29T10:27:00.075Z,6.85
2023-03-29T10:29:46.803Z,5.32
2023-03-29T10:32:35.550Z,7.03
2023-03-29T10:35:26.071Z,6.70
2023-03-29T10:38:17.654Z,9.15
2023-03-29T10:41:21.693Z,10.95
2023-03-29T10:44:24.046Z,8.43
2023-03-29T10:47:19.656Z,7.28
2023-03-29T10:50:06.970Z,8.88
2023-03-29T10:52:53.003Z,8.07
2023-03-29T10:56:07.589Z,15.65
2023-03-29T10:59:02.003Z,13.40
2023-03-29T11:02:14.708Z,14.00
2023-03-29T11:05:19.340Z,11.57
2023-03-29T11:08:31.910Z,14.23
2023-03-29T11:11:30.088Z,16.38
2023-03-29T11:14:24.545Z,17.58
2023-03-29T11:17:31.555Z,18.67
2023-03-29T11:20:22.436Z,21.83
2023-03-29T11:23:23.469Z,18.88
2023-03-29T11:26:22.650Z,17.70
2023-03-29T11:29:23.294Z,19.45
2023-03-29T11:32:19.184Z,21.05
2023-03-29T11:35:28.117Z,23.20
2023-03-29T11:38:22.864Z,18.00
2023-03-29T11:41:38.542Z,21.73
2023-03-29T11:44:35.911Z,16.40
2023-03-29T11:47:25.110Z,11.98
2023-03-29T11:50:10.870Z,15.23
2023-03-29T11:53:02.813Z,14.38
2023-03-29T11:55:51.318Z,15.40
2023-03-29T11:58:42.531Z,20.63
2023-03-29T12:01:37.618Z,21.10
2023-03-29T12:04:38.644Z,22.02
2023-03-29T12:07:29.414Z,22.05
2023-03-29T12:10:22.019Z,19.80
2023-03-29T12:13:19.220Z,24.90
2023-03-29T12:16:17.818Z,25.25
2023-03-29T12:19:12.481Z,20.75
2023-03-29T12:22:00.583Z,17.50
2023-03-29T12:24:50.608Z,13.98
2023-03-29T12:27:59.836Z,14.93
2023-03-29T12:31:14.334Z,18.98
2023-03-29T12:34:26.705Z,12.52
2023-03-29T12:37:21.067Z,15.18
2023-03-29T12:40:21.497Z,20.33
2023-03-29T12:43:14.322Z,17.05
2023-03-29T12:46:16.374Z,14.65
2023-03-29T12:49:21.169Z,15.43
2023-03-29T12:52:34.672Z,13.38
2023-03-29T12:55:50.484Z,14.05
2023-03-29T12:59:13.213Z,15.27
2023-03-29T13:02:23.364Z,15.90
2023-03-29T13:05:29.398Z,11.27
2023-03-29T13:08:36.404Z,13.23
2023-03-29T13:11:54.614Z,13.18
2023-03-29T13:14:46.471Z,12.40
2023-03-29T13:17:34.435Z,14.10
2023-03-29T13:20:37.325Z,11.48
2023-03-29T13:23:42.099Z,12.23
2023-03-29T13:26:49.973Z,11.27
2023-03-29T13:30:09.381Z,13.40
2023-03-29T13:33:10.265Z,18.65
2023-03-29T13:36:01.931Z,12.77
2023-03-29T13:38:53.733Z,17.80
2023-03-29T13:41:38.904Z,15.98
2023-03-29T13:44:43.613Z,15.25
2023-03-29T13:47:43.213Z,12.68
2023-03-29T13:50:39.146Z,14.07
2023-03-29T13:53:33.282Z,20.35
2023-03-29T13:56:34.748Z,12.90
2023-03-29T13:59:26.751Z,15.00
2023-03-29T14:02:22.719Z,11.55
2023-03-29T14:05:12.367Z,11.95
2023-03-29T14:08:04.005Z,16.13
2023-03-29T14:10:50.314Z,13.93
2023-03-29T14:13:35.745Z,10.88
2023-03-29T14:16:22.018Z,9.68
2023-03-29T14:19:32.114Z,10.25
2023-03-29T14:22:20.734Z,9.55
2023-03-29T14:25:14.122Z,9.50
2023-03-29T14:27:59.407Z,7.55
2023-03-29T14:30:47.287Z,11.27
2023-03-29T14:33:34.744Z,11.60
2023-03-29T14:36:21.289Z,13.80
2023-03-29T14:39:22.197Z,9.73
2023-03-29T14:42:20.855Z,15.30
2023-03-29T14:45:07.203Z,11.73
2023-03-29T14:47:52.904Z,10.82
2023-03-29T14:50:38.683Z,15.80
2023-03-29T14:53:24.842Z,13.43
2023-03-29T14:56:16.218Z,6.03
2023-03-29T14:59:04.623Z,8.57
2023-03-29T15:01:50.176Z,11.63
2023-03-29T15:04:36.136Z,10.55
2023-03-29T15:07:27.056Z,9.52
2023-03-29T15:10:19.336Z,11.48
2023-03-29T15:13:07.263Z,10.50
2023-03-29T15:15:56.121Z,10.00
2023-03-29T15:18:43.884Z,8.88
2023-03-29T15:21:36.308Z,12.52
2023-03-29T15:24:31.918Z,12.15
2023-03-29T15:27:18.967Z,9.43
2023-03-29T15:30:15.108Z,12.30
2023-03-29T15:33:37.375Z,16.52
2023-03-29T15:36:23.007Z,13.00
2023-03-29T15:39:17.375Z,11.85
2023-03-29T15:42:03.022Z,9.43
2023-03-29T15:44:48.455Z,12.98
2023-03-29T15:47:34.117Z,11.25
2023-03-29T15:50:19.686Z,12.05
2023-03-29T15:53:14.671Z,11.68
2023-03-29T15:56:04.034Z,9.57
2023-03-29T15:58:49.922Z,10.13
2023-03-29T16:01:37.895Z,18.25
2023-03-29T16:04:23.383Z,11.52
2023-03-29T16:07:17.074Z,16.50
2023-03-29T16:10:02.898Z,12.57
2023-03-29T16:12:48.322Z,11.65
2023-03-29T16:15:36.815Z,12.48
2023-03-29T16:18:22.534Z,14.15
2023-03-29T16:21:15.700Z,12.55
2023-03-29T16:24:01.772Z,11.15
2023-03-29T16:26:48.610Z,15.00
2023-03-29T16:29:34.168Z,7.35
2023-03-29T16:32:19.906Z,14.80
2023-03-29T16:35:17.567Z,10.43
2023-03-29T16:38:03.672Z,11.20
2023-03-29T16:40:49.390Z,10.85
2023-03-29T16:43:35.448Z,8.10
2023-03-29T16:46:21.146Z,13.82
2023-03-29T16:49:07.948Z,12.57
2023-03-29T16:51:53.196Z,12.00
2023-03-29T16:54:38.695Z,9.65
2023-03-29T16:57:26.950Z,7.20
2023-03-29T17:00:15.940Z,12.95
2023-03-29T17:03:01.820Z,14.80
2023-03-29T17:05:52.109Z,11.68
2023-03-29T17:08:38.266Z,9.85
2023-03-29T17:11:24.164Z,14.20
2023-03-29T17:14:10.485Z,14.77
2023-03-29T17:16:56.139Z,16.02
2023-03-29T17:19:41.701Z,11.95
2023-03-29T17:22:27.536Z,14.32
2023-03-29T17:25:13.472Z,10.63
2023-03-29T17:27:59.110Z,11.20
2023-03-29T17:30:48.602Z,10.82
2023-03-29T17:33:35.084Z,10.25
2023-03-29T17:36:24.167Z,15.52
2023-03-29T17:39:10.371Z,10.65
2023-03-29T17:41:56.595Z,15.32
2023-03-29T17:44:42.205Z,17.23
2023-03-29T17:47:27.696Z,14.45
2023-03-29T17:50:13.584Z,8.23
2023-03-29T17:52:59.108Z,14.95
2023-03-29T17:55:44.779Z,9.80
2023-03-29T17:58:30.465Z,16.63
2023-03-29T18:01:19.580Z,13.98
2023-03-29T18:04:05.458Z,11.63
2023-03-29T18:06:51.003Z,12.50
2023-03-29T18:09:36.433Z,12.13
2023-03-29T18:12:24.450Z,11.77
2023-03-29T18:15:10.615Z,12.60
2023-03-29T18:17:56.234Z,9.60
2023-03-29T18:20:45.178Z,11.32
2023-03-29T18:23:30.836Z,14.20
2023-03-29T18:26:17.505Z,13.43
2023-03-29T18:29:02.879Z,14.52
2023-03-29T18:31:48.678Z,14.13
2023-03-29T18:34:34.371Z,12.73
2023-03-29T18:37:20.167Z,14.20
2023-03-29T18:40:09.326Z,14.07
2023-03-29T18:42:54.785Z,12.18
2023-03-29T18:45:40.609Z,13.55
2023-03-29T18:48:26.509Z,14.35
2023-03-29T18:51:12.674Z,16.52
2023-03-29T18:53:58.065Z,18.58
2023-03-29T18:56:43.997Z,12.75
2023-03-29T18:59:29.855Z,12.38
2023-03-29T19:02:15.890Z,13.05
2023-03-29T19:05:01.904Z,12.50
2023-03-29T19:07:47.815Z,9.70
2023-03-29T19:10:38.298Z,18.08
2023-03-29T19:13:23.518Z,9.75
2023-03-29T19:16:09.321Z,13.32
2023-03-29T19:18:55.285Z,13.63
2023-03-29T19:21:41.719Z,11.48
2023-03-29T19:24:27.475Z,10.93
2023-03-29T19:27:12.887Z,12.25
2023-03-29T19:29:58.824Z,12.18
2023-03-29T19:32:44.588Z,12.15
2023-03-29T19:35:30.619Z,18.80
2023-03-29T19:38:21.436Z,12.38
2023-03-29T19:41:08.946Z,11.23
2023-03-29T19:43:55.711Z,18.13
2023-03-29T19:46:41.471Z,15.23
2023-03-29T19:49:27.038Z,17.85
2023-03-29T19:52:12.526Z,9.27
2023-03-29T19:55:01.137Z,12.13
2023-03-29T19:57:46.718Z,19.02
2023-03-29T20:00:33.173Z,13.93
2023-03-29T20:03:19.181Z,10.93
2023-03-29T20:06:04.839Z,12.30
2023-03-29T20:08:50.386Z,14.40
2023-03-29T20:11:36.108Z,10.40
2023-03-29T20:14:21.952Z,11.30
2023-03-29T20:17:08.008Z,15.38
2023-03-29T20:19:59.958Z,12.38
2023-03-29T20:22:46.151Z,13.88
2023-03-29T20:25:32.424Z,12.95
2023-03-29T20:28:18.325Z,18.63
2023-03-29T20:31:06.753Z,10.25
2023-03-29T20:33:52.278Z,14.43
2023-03-29T20:36:38.905Z,10.68
2023-03-29T20:39:26.067Z,14.60
2023-03-29T20:42:14.137Z,8.13
2023-03-29T20:45:00.188Z,8.90
2023-03-29T20:47:57.614Z,7.00
2023-03-29T20:50:47.427Z,9.48
2023-03-29T20:53:34.284Z,13.48
2023-03-29T20:56:20.933Z,10.48
2023-03-29T20:59:10.847Z,12.23
2023-03-29T21:01:57.130Z,7.57
2023-03-29T21:04:44.095Z,17.85
2023-03-29T21:07:30.391Z,14.05
2023-03-29T21:10:16.543Z,17.27
2023-03-29T21:13:02.650Z,10.88
2023-03-29T21:15:49.464Z,17.02
2023-03-29T21:18:39.212Z,11.50
2023-03-29T21:21:25.703Z,10.05
2023-03-29T21:24:13.502Z,17.38
2023-03-29T21:26:59.496Z,12.52
2023-03-29T21:29:45.708Z,17.95
2023-03-29T21:32:31.613Z,13.70
2023-03-29T21:35:17.450Z,13.45
2023-03-29T21:38:03.436Z,17.15
2023-03-29T21:40:48.624Z,18.25
2023-03-29T21:43:34.319Z,14.38
2023-03-29T21:46:19.616Z,11.68
2023-03-29T21:49:05.309Z,17.23
2023-03-29T21:51:51.285Z,10.20
2023-03-29T21:54:36.625Z,14.18
2023-03-29T21:57:22.373Z,25.27
2023-03-29T22:00:11.321Z,16.27
2023-03-29T22:02:57.574Z,19.33
2023-03-29T22:05:44.399Z,19.30
2023-03-29T22:08:30.789Z,16.17
2023-03-29T22:11:17.399Z,18.45
2023-03-29T22:14:04.166Z,15.77
2023-03-29T22:16:49.663Z,18.00
2023-03-29T22:19:39.703Z,16.30
2023-03-29T22:22:25.650Z,20.33
2023-03-29T22:25:12.136Z,20.45
2023-03-29T22:27:57.569Z,15.82
2023-03-29T22:30:43.027Z,20.20
2023-03-29T22:33:28.499Z,18.80
2023-03-29T22:36:22.842Z,19.40
2023-03-29T22:39:08.167Z,17.98
2023-03-29T22:41:54.255Z,18.00
2023-03-29T22:44:39.531Z,25.15
2023-03-29T22:47:25.052Z,14.50
2023-03-29T22:50:11.225Z,16.73
2023-03-29T22:52:57.004Z,15.15
2023-03-29T22:55:44.047Z,9.18
2023-03-29T22:58:29.664Z,12.05
2023-03-29T23:01:15.222Z,12.07
2023-03-29T23:04:01.045Z,15.45
2023-03-29T23:06:46.546Z,16.35
2023-03-29T23:09:32.481Z,17.70
2023-03-29T23:12:17.829Z,24.83
2023-03-29T23:15:06.327Z,13.13
2023-03-29T23:17:51.926Z,19.00
2023-03-29T23:20:37.448Z,12.02
2023-03-29T23:23:24.583Z,25.10
2023-03-29T23:26:11.199Z,20.35
2023-03-29T23:28:57.467Z,15.43
2023-03-29T23:31:44.342Z,12.55
2023-03-29T23:34:30.471Z,25.08
2023-03-29T23:37:15.806Z,22.25
2023-03-29T23:40:01.602Z,18.92
2023-03-29T23:42:48.348Z,26.38
2023-03-29T23:45:36.699Z,18.63
2023-03-29T23:48:23.769Z,17.98
2023-03-29T23:51:09.890Z,17.23
2023-03-29T23:53:56.440Z,20.25
2023-03-29T23:56:42.032Z,30.85
2023-03-29T23:59:30.628Z,15.95
